Time;durP1;ratioP1;P1;durP2;ratioP2;P2;SDS_P1;SDS_P2;PMS_P1;PMS_P2;Temp;Humidity;BMP_temperature;BMP_pressure;BME280_temperature;BME280_humidity;BME280_pressure;Samples;Min_cycle;Max_cycle;Signal;HPM_P1;HPM_P2
2022/11/19 00:01:08;;;;;;;78.78;34.45;;;;;;;-0.18;87.69;98304.97;5047576;28;20036;-81
2022/11/19 00:03:38;;;;;;;74.90;35.83;;;;;;;-0.76;87.39;98314.06;5030040;28;20033;-80
2022/11/19 00:06:26;;;;;;;74.85;35.00;;;;;;;-0.95;88.93;98244.00;5034578;28;20029;-81
2022/11/19 00:08:53;;;;;;;82.50;36.85;;;;;;;-0.94;87.01;98248.22;5034135;28;20097;-80
2022/11/19 00:14:11;;;;;;;76.40;34.85;;;;;;;-1.12;87.80;98252.31;5054896;28;20059;-80
2022/11/19 00:16:38;;;;;;;76.57;34.17;;;;;;;-0.90;88.74;98265.19;5034266;28;20010;-80
2022/11/19 00:19:09;;;;;;;75.82;34.03;;;;;;;-1.74;87.89;98257.34;5021597;28;20128;-81
2022/11/19 00:21:34;;;;;;;71.93;33.05;;;;;;;-1.74;88.16;98262.59;5055106;28;20041;-81
2022/11/19 00:24:01;;;;;;;69.22;32.13;;;;;;;-1.08;88.12;98329.47;5037668;28;20097;-81
2022/11/19 00:26:27;;;;;;;69.38;31.05;;;;;;;-0.58;89.77;98316.19;5034108;28;20049;-80
2022/11/19 00:29:11;;;;;;;69.85;32.78;;;;;;;-1.59;86.94;98303.41;5053966;28;20048;-80
2022/11/19 00:31:42;;;;;;;67.20;29.98;;;;;;;-1.39;87.49;98339.44;5054190;28;20021;-80
2022/11/19 00:34:11;;;;;;;58.95;26.52;;;;;;;-1.53;88.41;98320.97;5052935;28;20029;-81
2022/11/19 00:36:36;;;;;;;57.28;26.58;;;;;;;-1.31;88.49;98347.19;5054993;28;20036;-80
2022/11/19 00:39:03;;;;;;;54.45;28.45;;;;;;;-1.48;86.93;98316.97;5023303;28;20045;-80
2022/11/19 00:41:32;;;;;;;61.97;30.50;;;;;;;-1.46;86.49;98341.19;5021704;28;20024;-81
2022/11/19 00:43:58;;;;;;;66.82;32.10;;;;;;;-1.73;86.81;98321.75;5056552;28;20052;-80
2022/11/19 00:46:30;;;;;;;54.05;25.55;;;;;;;-1.77;86.50;98331.75;5031425;28;20157;-80
2022/11/19 00:48:57;;;;;;;65.35;30.00;;;;;;;-0.97;87.98;98318.50;5056427;28;20020;-81
2022/11/19 00:51:26;;;;;;;65.85;31.88;;;;;;;-0.48;84.74;98355.19;5038031;28;20013;-80
2022/11/19 00:53:54;;;;;;;55.88;27.05;;;;;;;-0.79;85.79;98342.44;5051230;28;20009;-80
2022/11/19 00:56:23;;;;;;;56.15;25.88;;;;;;;-0.85;85.02;98328.28;5053180;28;20052;-80
2022/11/19 00:58:50;;;;;;;53.10;24.95;;;;;;;-0.80;84.25;98343.44;5034614;28;20017;-80
2022/11/19 01:01:20;;;;;;;58.25;27.08;;;;;;;-1.19;84.67;98356.97;5017489;28;20046;-80
2022/11/19 01:03:46;;;;;;;55.42;27.08;;;;;;;-0.95;88.40;98290.31;5053584;28;20025;-80
2022/11/19 01:06:16;;;;;;;56.38;26.55;;;;;;;-1.29;83.59;98360.91;5031209;28;20045;-80
2022/11/19 01:08:41;;;;;;;46.50;24.13;;;;;;;-0.90;84.78;98345.56;5054156;28;20030;-80
2022/11/19 01:11:18;;;;;;;53.25;26.15;;;;;;;-0.84;85.08;98340.41;5030547;28;20117;-80
2022/11/19 01:13:45;;;;;;;;;;;;;;;-0.41;85.90;98356.03;5051195;28;20041;-80
2022/11/19 01:16:21;;;;;;;50.42;24.00;;;;;;;-1.28;84.78;98334.53;5053257;28;19947;-81
2022/11/19 01:18:49;;;;;;;48.38;24.08;;;;;;;-0.91;84.23;98333.47;5050086;28;20071;-80
2022/11/19 01:21:16;;;;;;;49.80;25.85;;;;;;;-1.84;84.12;98336.13;5050124;28;20739;-80
2022/11/19 01:23:45;;;;;;;45.10;24.38;;;;;;;-0.85;87.09;98356.28;5021853;28;20093;-80
2022/11/19 01:26:19;;;;;;;48.63;25.40;;;;;;;-1.52;83.84;98351.38;5047295;28;20044;-80
2022/11/19 01:28:46;;;;;;;53.58;25.88;;;;;;;-1.92;84.12;98276.06;5053565;28;20038;-80
2022/11/19 01:31:24;;;;;;;47.50;24.80;;;;;;;-1.31;84.53;98347.19;5038905;28;20030;-81
2022/11/19 01:33:51;;;;;;;48.45;23.55;;;;;;;-1.37;83.97;98363.59;5054839;28;20068;-80
2022/11/19 01:36:34;;;;;;;45.28;22.65;;;;;;;-2.10;85.76;98295.75;5039503;28;20076;-80
2022/11/19 01:39:05;;;;;;;48.83;23.95;;;;;;;-1.50;84.22;98332.88;5052117;28;20084;-80
2022/11/19 01:41:31;;;;;;;45.05;24.23;;;;;;;0.10;87.14;98359.19;5050214;28;20067;-80
2022/11/19 01:44:08;;;;;;;58.25;26.63;;;;;;;-0.89;83.96;98368.94;5051841;28;20026;-81
2022/11/19 01:46:36;;;;;;;42.65;23.27;;;;;;;-1.44;84.05;98321.66;5048692;28;20029;-81
2022/11/19 01:49:08;;;;;;;50.92;24.83;;;;;;;-1.12;86.92;98375.38;5053254;28;21312;-80
2022/11/19 01:51:36;;;;;;;40.30;24.02;;;;;;;-1.03;82.11;98366.41;5049931;28;20041;-80
2022/11/19 01:54:40;;;;;;;39.83;22.48;;;;;;;-0.51;84.17;98372.09;5026245;28;20038;-80
2022/11/19 01:57:12;;;;;;;42.05;21.20;;;;;;;-1.45;84.08;98351.47;5023396;28;20018;-80
2022/11/19 01:59:38;;;;;;;40.60;20.05;;;;;;;-1.89;82.56;98377.69;5018814;28;20057;-80
2022/11/19 02:02:05;;;;;;;40.25;23.08;;;;;;;-0.94;85.15;98373.16;5051499;28;20071;-80
2022/11/19 02:04:39;;;;;;;42.97;22.63;;;;;;;-1.09;85.17;98320.81;5047251;28;20042;-81
2022/11/19 02:07:14;;;;;;;37.28;20.65;;;;;;;-1.87;80.50;98307.72;5032844;28;20025;-80
2022/11/19 02:09:50;;;;;;;34.78;19.60;;;;;;;-1.05;82.41;98382.28;5052962;28;20025;-81
2022/11/19 02:12:42;;;;;;;36.13;19.90;;;;;;;-0.82;85.75;98382.09;5051213;28;20009;-80
2022/11/19 02:15:36;;;;;;;47.88;23.55;;;;;;;-0.48;83.92;98389.25;5053249;28;20033;-80
2022/11/19 02:18:12;;;;;;;40.08;22.45;;;;;;;-0.51;84.96;98397.50;5065427;28;20106;-80
2022/11/19 02:21:22;;;;;;;43.42;20.48;;;;;;;-0.18;82.97;98401.19;5047853;28;20012;-81
2022/11/19 02:24:17;;;;;;;32.45;18.15;;;;;;;-0.70;82.93;98398.97;5053901;28;20060;-80
2022/11/19 02:27:06;;;;;;;30.92;17.55;;;;;;;-0.41;82.82;98397.97;5054137;28;20021;-80
2022/11/19 02:29:44;;;;;;;34.35;17.58;;;;;;;-0.40;81.60;98397.81;5050870;28;20025;-80
2022/11/19 02:32:46;;;;;;;33.28;20.85;;;;;;;-0.42;80.54;98351.81;5051738;28;20048;-80
2022/11/19 02:35:17;;;;;;;37.40;19.48;;;;;;;-0.87;80.27;98324.22;5054849;28;20057;-80
2022/11/19 02:38:03;;;;;;;33.30;18.88;;;;;;;-1.16;83.33;98327.00;5055752;28;20093;-80
2022/11/19 02:40:53;;;;;;;32.78;18.30;;;;;;;-1.56;80.93;98326.59;5055211;28;20048;-80
2022/11/19 02:43:32;;;;;;;29.38;16.58;;;;;;;-1.93;80.47;98339.00;5048628;28;20041;-80
2022/11/19 02:46:08;;;;;;;31.02;18.35;;;;;;;-1.57;82.49;98358.97;5044745;28;20021;-80
2022/11/19 02:48:39;;;;;;;31.35;17.92;;;;;;;-1.59;83.15;98375.84;5044613;28;20038;-80
2022/11/19 02:51:06;;;;;;;32.50;17.05;;;;;;;-1.95;82.34;98370.56;5029987;28;20041;-80
2022/11/19 02:53:33;;;;;;;30.42;16.45;;;;;;;-1.23;83.37;98379.28;5051241;28;20038;-81
2022/11/19 02:56:16;;;;;;;31.15;17.70;;;;;;;-1.40;84.14;98359.56;5037734;28;20025;-80
2022/11/19 03:04:30;;;;;;;29.13;16.83;;;;;;;-0.80;83.41;98377.50;5050938;28;20044;-81
2022/11/19 03:07:09;;;;;;;28.48;16.38;;;;;;;-1.16;82.04;98379.34;5019012;28;20030;-80
2022/11/19 03:09:58;;;;;;;29.45;17.05;;;;;;;-1.31;81.45;98381.22;5053939;28;20035;-80
2022/11/19 03:12:47;;;;;;;31.08;17.60;;;;;;;-1.29;79.42;98387.88;5053828;28;20038;-81
2022/11/19 03:19:07;;;;;;;24.77;15.25;;;;;;;-1.60;82.10;98390.75;5053111;28;20028;-81
2022/11/19 03:21:38;;;;;;;24.02;15.63;;;;;;;-2.01;81.40;98396.63;5022696;28;20109;-80
2022/11/19 03:24:13;;;;;;;27.20;16.48;;;;;;;-2.00;80.26;98393.00;5033063;28;20042;-80
2022/11/19 03:26:45;;;;;;;26.83;14.88;;;;;;;-1.84;81.39;98354.44;5031969;28;20036;-80
2022/11/19 03:29:15;;;;;;;26.98;16.17;;;;;;;-1.84;80.69;98404.13;5050733;28;20048;-81
2022/11/19 03:31:48;;;;;;;26.90;15.82;;;;;;;-1.95;82.27;98370.56;5029387;28;20434;-81
2022/11/19 03:34:21;;;;;;;26.45;15.15;;;;;;;-2.11;81.18;98394.25;5052034;28;20049;-81
2022/11/19 03:36:52;;;;;;;24.95;15.38;;;;;;;-2.27;81.62;98365.66;5050620;28;20033;-81
2022/11/19 03:39:20;;;;;;;28.90;16.73;;;;;;;-2.23;82.08;98340.00;5045951;28;20072;-81
2022/11/19 03:41:48;;;;;;;25.15;14.35;;;;;;;-1.86;80.47;98394.81;5051298;28;20096;-81
2022/11/19 03:44:29;;;;;;;27.35;15.73;;;;;;;-1.82;81.08;98409.97;5030842;28;20162;-81
2022/11/19 03:47:00;;;;;;;24.02;14.55;;;;;;;-2.33;82.19;98354.16;5046720;28;20090;-81
2022/11/19 03:49:32;;;;;;;27.05;15.18;;;;;;;-1.86;82.35;98424.41;5035483;28;20036;-80
2022/11/19 03:52:03;;;;;;;23.33;14.18;;;;;;;-2.51;80.75;98352.88;5045898;28;20029;-81
2022/11/19 03:54:30;;;;;;;26.73;15.38;;;;;;;-2.39;81.27;98351.44;5049539;28;20017;-81
2022/11/19 03:56:57;;;;;;;26.75;14.90;;;;;;;-1.81;81.62;98361.06;5051045;28;20021;-81
2022/11/19 03:59:23;;;;;;;29.10;14.68;;;;;;;-2.11;80.20;98357.66;5051996;28;20048;-81
2022/11/19 04:01:51;;;;;;;26.17;15.13;;;;;;;-1.48;80.60;98398.91;5049814;28;20028;-81
2022/11/19 04:07:09;;;;;;;27.95;15.40;;;;;;;-2.61;79.52;98388.88;5049043;28;20063;-80
2022/11/19 04:09:35;;;;;;;26.05;17.02;;;;;;;-2.00;80.01;98432.22;5051184;28;20025;-81
2022/11/19 04:12:02;;;;;;;21.25;13.10;;;;;;;-2.20;80.11;98438.94;5029473;28;20477;-81
2022/11/19 04:14:27;;;;;;;29.70;15.50;;;;;;;-2.80;80.79;98399.81;5032010;28;20041;-81
2022/11/19 04:16:53;;;;;;;22.20;14.32;;;;;;;-2.77;81.55;98366.31;5047183;28;20036;-81
2022/11/19 04:19:18;;;;;;;24.55;13.45;;;;;;;-2.86;81.25;98363.97;5036079;28;20033;-81
2022/11/19 04:21:44;;;;;;;26.95;14.73;;;;;;;-2.76;80.53;98383.63;5051063;28;20041;-81
2022/11/19 04:24:10;;;;;;;22.15;12.98;;;;;;;-3.19;80.56;98339.91;5034093;28;20041;-81
2022/11/19 04:26:36;;;;;;;26.05;14.02;;;;;;;-3.03;80.53;98365.88;5025425;28;20021;-80
2022/11/19 04:29:03;;;;;;;23.00;13.60;;;;;;;-2.70;80.17;98401.19;5052345;28;20071;-81
2022/11/19 04:31:29;;;;;;;26.50;14.43;;;;;;;-2.95;79.67;98363.22;5048521;28;20025;-81
2022/11/19 04:33:54;;;;;;;31.33;16.73;;;;;;;-2.35;79.29;98415.41;5031439;28;20108;-81
2022/11/19 04:36:20;;;;;;;23.00;13.32;;;;;;;-2.94;79.92;98369.22;5045601;28;20036;-80
2022/11/19 04:38:45;;;;;;;21.35;13.82;;;;;;;-2.45;80.76;98428.75;5019309;28;20053;-81
2022/11/19 04:41:11;;;;;;;22.52;14.23;;;;;;;-3.02;80.39;98406.66;5032153;28;20088;-80
2022/11/19 04:43:36;;;;;;;24.60;12.80;;;;;;;-3.35;78.80;98387.78;5036254;28;20031;-80
2022/11/19 04:46:01;;;;;;;24.17;13.77;;;;;;;-3.21;79.40;98363.53;5050494;28;20038;-81
2022/11/19 04:48:27;;;;;;;24.67;13.18;;;;;;;-3.16;79.37;98429.06;5048887;28;20033;-80
2022/11/19 04:50:52;;;;;;;19.15;11.88;;;;;;;-3.18;79.89;98446.72;5029258;28;20042;-80
2022/11/19 04:53:19;;;;;;;20.90;11.00;;;;;;;-2.73;81.48;98452.97;5033378;28;20041;-81
2022/11/19 04:55:44;;;;;;;23.55;14.52;;;;;;;-2.72;80.65;98446.75;5046703;28;20025;-80
2022/11/19 04:58:10;;;;;;;25.50;14.10;;;;;;;-3.05;81.18;98452.19;5014306;28;20060;-81
2022/11/19 05:00:35;;;;;;;24.88;14.48;;;;;;;-3.01;81.38;98423.91;5045937;28;20048;-81
2022/11/19 05:03:01;;;;;;;29.08;16.95;;;;;;;-2.74;80.88;98452.16;5030980;28;20288;-81
2022/11/19 05:05:26;;;;;;;29.08;16.00;;;;;;;-2.19;82.29;98423.09;5031860;28;20057;-81
2022/11/19 05:07:52;;;;;;;29.67;15.95;;;;;;;-2.41;81.32;98453.53;5046424;28;20052;-80
2022/11/19 05:10:17;;;;;;;22.88;13.02;;;;;;;-2.94;80.52;98429.25;5033865;28;20040;-80
2022/11/19 05:12:43;;;;;;;33.25;17.70;;;;;;;-2.82;81.07;98454.81;5043644;28;20482;-80
2022/11/19 05:15:09;;;;;;;27.40;14.77;;;;;;;-2.29;80.88;98435.59;5047386;28;20064;-81
2022/11/19 05:17:34;;;;;;;27.77;15.93;;;;;;;-2.97;80.62;98396.47;5029651;28;20038;-81
2022/11/19 05:19:59;;;;;;;30.55;15.75;;;;;;;-3.22;81.73;98401.06;5030044;28;20035;-81
2022/11/19 05:22:25;;;;;;;26.55;15.63;;;;;;;-2.99;82.42;98453.28;5038921;28;20088;-80
2022/11/19 05:24:50;;;;;;;27.17;16.20;;;;;;;-3.51;80.93;98389.63;5021686;28;20056;-81
2022/11/19 05:27:18;;;;;;;35.08;18.58;;;;;;;-3.08;81.78;98455.13;5024425;28;20033;-81
2022/11/19 05:29:43;;;;;;;31.00;17.13;;;;;;;-2.76;81.03;98466.34;5039483;28;20040;-81
2022/11/19 05:32:09;;;;;;;30.50;16.60;;;;;;;-2.74;80.33;98440.88;5025099;28;20033;-81
2022/11/19 05:34:34;;;;;;;28.08;16.52;;;;;;;-2.86;80.59;98455.34;5041509;28;20041;-81
2022/11/19 05:37:00;;;;;;;36.42;17.77;;;;;;;-2.63;81.53;98445.69;5043056;28;20029;-80
2022/11/19 05:39:25;;;;;;;30.65;16.95;;;;;;;-2.02;82.31;98450.72;5024902;28;20041;-81
2022/11/19 05:41:50;;;;;;;34.45;17.67;;;;;;;-2.75;79.58;98468.00;5040452;28;20081;-81
2022/11/19 05:44:16;;;;;;;38.08;19.15;;;;;;;-2.99;81.55;98457.69;5043084;28;20048;-80
2022/11/19 05:46:42;;;;;;;34.13;16.52;;;;;;;-3.03;81.01;98436.34;5043476;28;20025;-80
2022/11/19 05:49:07;;;;;;;33.42;17.48;;;;;;;-2.74;81.31;98402.53;5025845;28;20048;-81
2022/11/19 05:51:32;;;;;;;30.75;16.77;;;;;;;-2.00;81.41;98456.56;5043150;28;20064;-81
2022/11/19 05:53:58;;;;;;;32.70;17.73;;;;;;;-0.82;80.07;98443.19;5042319;28;20224;-81
2022/11/19 05:56:23;;;;;;;30.67;15.38;;;;;;;-0.19;81.69;98486.91;5012158;28;20034;-81
2022/11/19 05:58:49;;;;;;;29.23;16.92;;;;;;;-0.83;78.96;98482.66;5022262;28;20068;-81
2022/11/19 06:01:14;;;;;;;28.05;15.82;;;;;;;-1.50;78.65;98474.19;5045657;28;20101;-81
2022/11/19 06:03:40;;;;;;;28.05;15.43;;;;;;;-0.44;81.06;98482.25;5027727;28;20039;-81
2022/11/19 06:06:06;;;;;;;26.65;16.10;;;;;;;0.10;80.73;98477.25;5044393;28;20029;-81
2022/11/19 06:08:32;;;;;;;28.40;15.38;;;;;;;0.64;79.18;98479.00;5046066;28;20032;-81
2022/11/19 06:10:57;;;;;;;27.88;15.25;;;;;;;-0.27;75.68;98473.94;5044474;28;20034;-81
2022/11/19 06:13:22;;;;;;;30.13;17.55;;;;;;;-1.89;78.14;98505.00;5026028;28;20116;-82
2022/11/19 06:15:48;;;;;;;31.83;17.08;;;;;;;-2.41;80.04;98468.38;5047140;28;20032;-81
2022/11/19 06:18:13;;;;;;;32.42;17.85;;;;;;;-2.52;79.07;98484.47;5047875;28;20041;-81
2022/11/19 06:20:39;;;;;;;35.55;18.52;;;;;;;-2.70;79.96;98468.25;5047622;28;20055;-81
2022/11/19 06:23:04;;;;;;;39.47;20.40;;;;;;;-2.81;79.01;98471.28;5043954;28;20116;-81
2022/11/19 06:25:29;;;;;;;28.67;15.88;;;;;;;-2.01;80.65;98494.16;5043698;28;20044;-81
2022/11/19 06:27:55;;;;;;;35.47;17.95;;;;;;;-2.48;80.46;98506.63;5041860;28;20060;-81
2022/11/19 06:30:20;;;;;;;28.38;15.95;;;;;;;-1.11;83.85;98486.94;5029627;28;20040;-81
2022/11/19 06:32:45;;;;;;;28.33;16.40;;;;;;;-2.40;78.12;98454.31;5027954;28;20033;-81
2022/11/19 06:35:12;;;;;;;27.80;16.02;;;;;;;-2.44;79.89;98435.56;5049753;28;20025;-81
2022/11/19 06:37:37;;;;;;;24.23;13.68;;;;;;;-0.85;80.00;98502.97;5040676;28;20034;-81
2022/11/19 06:40:03;;;;;;;28.10;14.77;;;;;;;0.13;81.25;98511.78;5010234;28;20057;-82
2022/11/19 06:42:37;;;;;;;29.00;16.08;;;;;;;-0.30;75.99;98492.66;5040636;28;20052;-81
2022/11/19 06:45:11;;;;;;;26.52;13.95;;;;;;;0.84;77.13;98499.28;5045735;28;20026;-81
2022/11/19 06:47:38;;;;;;;26.00;15.05;;;;;;;1.19;75.47;98503.47;5033037;28;20038;-82
2022/11/19 06:50:05;;;;;;;27.58;15.35;;;;;;;0.40;74.71;98525.91;5040674;28;20103;-81
2022/11/19 06:52:30;;;;;;;22.95;13.63;;;;;;;0.57;77.36;98509.66;5019941;28;20111;-81
2022/11/19 06:54:56;;;;;;;27.88;14.80;;;;;;;-0.14;75.08;98509.94;5009298;28;20072;-81
2022/11/19 06:57:21;;;;;;;26.13;14.45;;;;;;;-0.44;76.84;98519.75;5021543;28;20040;-81
2022/11/19 06:59:46;;;;;;;33.65;18.77;;;;;;;-1.78;76.18;98504.56;5022353;28;20025;-81
2022/11/19 07:02:12;;;;;;;34.05;18.67;;;;;;;-1.94;78.23;98510.75;5027624;28;20597;-81
2022/11/19 07:04:37;;;;;;;37.85;19.40;;;;;;;-0.87;78.98;98529.34;5022090;28;20038;-81
2022/11/19 07:07:04;;;;;;;27.75;16.10;;;;;;;0.11;79.46;98524.25;5038677;28;20048;-81
2022/11/19 07:09:30;;;;;;;28.63;15.15;;;;;;;0.74;77.18;98512.78;5028725;28;20036;-81
2022/11/19 07:11:55;;;;;;;24.15;14.15;;;;;;;0.96;75.66;98521.38;5036106;28;20393;-81
2022/11/19 07:14:21;;;;;;;24.63;15.40;;;;;;;1.12;74.90;98529.72;5000106;28;20030;-81
2022/11/19 07:16:46;;;;;;;24.92;15.48;;;;;;;0.72;73.99;98517.44;5026641;28;20044;-81
2022/11/19 07:19:11;;;;;;;30.88;16.50;;;;;;;0.19;74.31;98555.63;5038802;28;20029;-81
2022/11/19 07:21:37;;;;;;;28.70;16.15;;;;;;;-0.34;76.06;98543.84;5041077;28;20044;-81
2022/11/19 07:24:05;;;;;;;32.40;18.55;;;;;;;-1.40;75.73;98565.50;5039656;28;20075;-82
2022/11/19 07:26:32;;;;;;;31.73;17.85;;;;;;;-1.85;77.95;98564.63;5037709;28;20039;-81
2022/11/19 07:29:03;;;;;;;35.95;18.98;;;;;;;-1.55;77.66;98541.94;5033344;28;20037;-81
2022/11/19 07:31:28;;;;;;;30.88;16.00;;;;;;;-0.61;79.68;98555.03;5032229;28;20045;-81
2022/11/19 07:33:54;;;;;;;37.67;18.55;;;;;;;-1.31;75.81;98553.97;5029972;28;20536;-80
2022/11/19 07:36:19;;;;;;;36.00;20.20;;;;;;;-2.02;78.18;98578.81;5034708;28;20108;-81
2022/11/19 07:38:45;;;;;;;36.65;19.17;;;;;;;-2.51;78.95;98574.94;5035272;28;20507;-81
2022/11/19 07:43:55;;;;;;;33.10;18.55;;;;;;;-2.41;81.50;98568.50;5025135;28;20036;-81
2022/11/19 07:46:24;;;;;;;28.23;16.25;;;;;;;-3.74;80.40;98487.84;5028135;28;20457;-81
2022/11/19 07:48:53;;;;;;;32.58;17.27;;;;;;;-3.42;80.82;98574.63;5013645;28;20389;-81
2022/11/19 07:51:19;;;;;;;35.88;18.60;;;;;;;-2.91;82.11;98583.78;5012542;28;20366;-81
2022/11/19 07:53:45;;;;;;;29.80;17.17;;;;;;;-3.48;81.11;98559.66;5019962;28;20045;-81
2022/11/19 07:56:10;;;;;;;28.42;17.05;;;;;;;-3.24;82.11;98572.66;5009720;28;20029;-81
2022/11/19 07:58:35;;;;;;;30.20;16.73;;;;;;;-3.65;81.46;98558.06;5017559;28;20045;-81
2022/11/19 08:01:18;;;;;;;27.33;15.88;;;;;;;-3.54;81.86;98580.38;5024199;28;20116;-81
2022/11/19 08:03:45;;;;;;;27.77;15.50;;;;;;;-3.69;81.98;98574.22;5028834;28;20573;-81
2022/11/19 08:06:11;;;;;;;30.60;14.95;;;;;;;-3.81;81.81;98577.16;5027717;28;20389;-81
2022/11/19 08:08:37;;;;;;;28.08;15.48;;;;;;;-3.11;82.01;98591.19;5018963;28;20033;-81
2022/11/19 08:11:05;;;;;;;24.73;15.35;;;;;;;-3.67;81.93;98577.47;5025201;28;20029;-80
2022/11/19 08:13:31;;;;;;;31.15;15.85;;;;;;;-2.92;81.96;98576.91;5014008;28;20081;-81
2022/11/19 08:16:05;;;;;;;31.42;15.55;;;;;;;-3.29;81.78;98582.75;5028749;28;20025;-81
2022/11/19 08:18:30;;;;;;;24.92;15.23;;;;;;;-3.38;81.23;98601.19;5024117;28;20437;-80
2022/11/19 08:21:11;;;;;;;34.22;17.13;;;;;;;-3.49;81.34;98568.47;5031670;28;20110;-81
2022/11/19 08:23:37;;;;;;;31.65;16.75;;;;;;;-3.49;81.96;98599.75;5025939;28;20025;-81
2022/11/19 08:26:06;;;;;;;32.80;16.42;;;;;;;-3.12;80.86;98605.22;5024100;28;20040;-81
2022/11/19 08:28:31;;;;;;;34.95;17.02;;;;;;;-3.12;82.40;98593.94;5028364;28;20048;-81
2022/11/19 08:31:07;;;;;;;32.55;16.63;;;;;;;-2.53;82.67;98582.09;5027860;28;20033;-81
2022/11/19 08:33:32;;;;;;;29.65;17.75;;;;;;;-3.05;80.68;98577.47;5026262;28;20021;-81
2022/11/19 08:35:58;;;;;;;30.55;15.75;;;;;;;-2.97;80.53;98609.75;5030806;28;20044;-80
2022/11/19 08:38:23;;;;;;;31.65;16.60;;;;;;;-2.86;80.91;98602.34;5018263;28;20087;-80
2022/11/19 08:42:58;;;;;;;28.42;15.40;;;;;;;-3.35;80.74;98601.69;4997301;28;20121;-81
2022/11/19 08:43:38;;;;;;;26.77;14.57;;;;;;;-2.91;83.77;98588.19;5015950;28;21931;-81
2022/11/19 08:46:04;;;;;;;30.55;15.93;;;;;;;-3.07;82.23;98612.53;5009314;28;20034;-81
2022/11/19 08:48:29;;;;;;;23.75;13.80;;;;;;;-2.47;82.45;98615.41;5019529;28;20037;-81
2022/11/19 08:50:55;;;;;;;30.08;15.55;;;;;;;-2.78;81.29;98601.50;4993549;28;20025;-81
2022/11/19 08:53:20;;;;;;;26.52;15.55;;;;;;;-3.04;81.86;98602.56;5023728;28;20034;-80
2022/11/19 08:55:50;;;;;;;23.42;14.38;;;;;;;-2.71;80.99;98603.25;5023651;28;20115;-81
2022/11/19 08:58:15;;;;;;;26.23;15.27;;;;;;;-2.55;81.91;98586.69;5024234;28;20029;-81
2022/11/19 09:00:41;;;;;;;32.03;15.13;;;;;;;-2.12;81.59;98611.41;5010105;28;20037;-81
2022/11/19 09:03:06;;;;;;;27.55;14.95;;;;;;;-2.43;79.19;98580.91;5026267;28;20061;-81
2022/11/19 09:05:32;;;;;;;22.02;12.88;;;;;;;-2.19;80.33;98605.25;5022196;28;20026;-81
2022/11/19 09:07:57;;;;;;;27.88;15.13;;;;;;;-2.38;79.78;98583.00;5027976;28;20052;-81
2022/11/19 09:10:23;;;;;;;25.92;14.85;;;;;;;-2.54;78.72;98601.38;5024279;28;20032;-80
2022/11/19 09:12:48;;;;;;;26.45;14.10;;;;;;;-1.92;82.08;98613.38;5023974;28;20071;-80
2022/11/19 09:15:14;;;;;;;25.52;15.60;;;;;;;-0.51;80.48;98580.97;5023449;28;20062;-81
2022/11/19 09:17:39;;;;;;;26.77;14.13;;;;;;;0.19;76.60;98595.00;5018753;28;20508;-83
2022/11/19 09:20:05;;;;;;;23.92;13.05;;;;;;;-0.21;79.09;98590.34;5025305;28;20021;-79
2022/11/19 09:22:31;;;;;;;26.80;14.65;;;;;;;0.38;78.83;98586.47;5026515;28;20025;-80
2022/11/19 09:24:56;;;;;;;28.27;14.88;;;;;;;0.94;76.43;98592.50;5017987;28;20393;-82
2022/11/19 09:27:22;;;;;;;22.85;15.50;;;;;;;-0.37;74.28;98588.00;4989347;28;20041;-80
2022/11/19 09:29:47;;;;;;;23.50;13.48;;;;;;;0.80;76.79;98588.19;4990880;28;20039;-81
2022/11/19 09:32:13;;;;;;;26.20;15.80;;;;;;;0.43;76.60;98612.97;5028068;28;20056;-81
2022/11/19 09:34:40;;;;;;;29.33;15.95;;;;;;;-0.84;76.04;98552.56;5028555;28;20084;-82
2022/11/19 09:37:09;;;;;;;32.38;17.92;;;;;;;-0.85;78.40;98621.66;5004758;28;20040;-82
2022/11/19 09:39:35;;;;;;;25.00;15.85;;;;;;;-1.32;78.50;98621.19;5024945;28;20045;-82
2022/11/19 09:42:12;;;;;;;28.75;16.10;;;;;;;-0.41;79.65;98618.97;5029026;28;20025;-81
2022/11/19 09:45:02;;;;;;;26.85;16.08;;;;;;;-1.27;79.18;98621.50;5028075;28;20033;-81
2022/11/19 09:47:31;;;;;;;28.05;15.27;;;;;;;-1.25;77.67;98621.31;5026752;28;20147;-82
2022/11/19 09:50:17;;;;;;;27.48;16.50;;;;;;;-1.96;79.62;98619.94;5026631;28;20026;-81
2022/11/19 09:53:00;;;;;;;25.70;14.02;;;;;;;-2.42;78.84;98600.81;5021200;28;20507;-81
2022/11/19 09:55:38;;;;;;;23.75;14.82;;;;;;;-1.45;79.15;98588.78;5020299;28;20034;-81
2022/11/19 09:58:24;;;;;;;22.02;13.57;;;;;;;-1.88;77.83;98612.03;5024169;28;20566;-81
2022/11/19 10:00:49;;;;;;;23.58;13.65;;;;;;;-1.11;78.12;98586.44;5025891;28;20053;-82
2022/11/19 10:03:19;;;;;;;23.65;14.32;;;;;;;-0.81;76.72;98607.19;5027545;28;20049;-81
2022/11/19 10:06:03;;;;;;;23.15;13.15;;;;;;;-1.55;76.05;98609.97;5012758;28;20453;-81
2022/11/19 10:09:01;;;;;;;22.30;13.88;;;;;;;0.40;79.91;98613.34;5017713;28;20026;-80
2022/11/19 10:11:51;;;;;;;20.38;12.18;;;;;;;-0.27;80.64;98606.84;5018984;28;20036;-82
2022/11/19 10:14:37;;;;;;;21.30;13.27;;;;;;;-0.14;78.24;98599.94;5018846;28;20038;-81
2022/11/19 10:17:27;;;;;;;29.30;16.15;;;;;;;-0.32;78.14;98609.19;5036201;28;20029;-82
2022/11/19 10:20:08;;;;;;;22.48;13.07;;;;;;;0.02;77.07;98598.06;5022980;28;20037;-81
2022/11/19 10:23:01;;;;;;;23.42;13.30;;;;;;;-0.57;75.21;98603.50;5021060;28;20070;-81
2022/11/19 10:25:39;;;;;;;19.50;12.15;;;;;;;-1.09;75.92;98592.34;5022865;28;20025;-81
2022/11/19 10:28:13;;;;;;;23.20;13.82;;;;;;;-0.89;76.07;98607.31;5024686;28;20481;-82
2022/11/19 10:30:42;;;;;;;17.73;11.93;;;;;;;-1.87;74.55;98511.69;5015488;28;20033;-81
2022/11/19 10:33:17;;;;;;;19.40;11.93;;;;;;;-1.27;77.53;98604.97;5020981;28;20052;-81
2022/11/19 10:36:11;;;;;;;21.67;13.82;;;;;;;-1.62;77.56;98599.38;5018572;28;20441;-81
2022/11/19 10:38:50;;;;;;;24.73;13.70;;;;;;;-1.21;76.87;98604.25;4998696;28;20041;-81
2022/11/19 10:41:45;;;;;;;25.60;12.60;;;;;;;-1.98;76.17;98608.03;5019347;28;20045;-81
2022/11/19 10:44:38;;;;;;;23.85;12.18;;;;;;;-2.31;78.96;98589.16;5019202;28;20226;-81
2022/11/19 10:47:08;;;;;;;26.45;12.32;;;;;;;-1.83;77.83;98609.72;5021038;28;20044;-81
2022/11/19 10:49:38;;;;;;;16.10;10.27;;;;;;;-2.20;77.84;98583.53;5023836;28;20056;-81
2022/11/19 10:52:07;;;;;;;17.92;11.50;;;;;;;-1.83;78.62;98580.94;5009460;28;20033;-81
2022/11/19 10:54:33;;;;;;;19.00;11.00;;;;;;;-0.56;81.32;98578.88;5019909;28;20061;-81
2022/11/19 10:56:59;;;;;;;19.80;11.52;;;;;;;-1.20;78.02;98564.78;4989821;28;20450;-81
2022/11/19 10:59:27;;;;;;;19.20;12.43;;;;;;;-0.11;76.69;98586.44;5004536;28;20033;-81
2022/11/19 11:01:58;;;;;;;18.08;11.60;;;;;;;-0.37;75.75;98564.38;5026377;28;20125;-81
2022/11/19 11:04:27;;;;;;;20.42;12.05;;;;;;;-0.49;74.92;98563.25;5016677;28;20048;-81
2022/11/19 11:07:04;;;;;;;17.63;11.00;;;;;;;-1.57;76.35;98576.13;5025346;28;20742;-81
2022/11/19 11:09:39;;;;;;;18.88;11.82;;;;;;;-0.62;76.99;98576.19;5022523;28;20525;-81
2022/11/19 11:15:26;;;;;;;17.73;10.05;;;;;;;-1.25;75.18;98556.69;5023572;28;20152;-81
2022/11/19 11:18:01;;;;;;;18.33;9.82;;;;;;;0.24;76.97;98563.72;5028496;28;20029;-81
2022/11/19 11:20:31;;;;;;;19.90;11.63;;;;;;;-0.19;74.82;98549.03;5020860;28;20528;-81
2022/11/19 11:23:19;;;;;;;20.60;11.40;;;;;;;-0.18;74.67;98555.91;5002398;28;20762;-81
2022/11/19 11:26:02;;;;;;;12.48;9.57;;;;;;;-0.22;76.31;98560.69;5025525;28;20080;-81
2022/11/19 11:28:28;;;;;;;77.20;34.00;;;;;;;-0.04;75.24;98560.25;5034914;28;20053;-81
2022/11/19 11:31:01;;;;;;;18.63;10.30;;;;;;;-1.43;74.79;98558.00;5007019;28;20034;-81
2022/11/19 11:33:31;;;;;;;39.35;18.60;;;;;;;-1.08;75.28;98550.25;5022023;28;20028;-81
2022/11/19 11:36:20;;;;;;;19.08;10.93;;;;;;;-1.60;75.76;98539.06;5013416;28;20048;-81
2022/11/19 11:38:48;;;;;;;42.10;21.17;;;;;;;-0.18;77.15;98551.47;5011609;28;20041;-81
2022/11/19 11:41:20;;;;;;;32.08;14.80;;;;;;;-0.10;76.82;98548.72;5029140;28;20041;-81
2022/11/19 11:44:01;;;;;;;33.97;18.77;;;;;;;-0.17;76.02;98534.72;5023208;28;20029;-81
2022/11/19 11:46:47;;;;;;;28.83;15.85;;;;;;;-0.67;74.44;98547.91;5026816;28;20392;-81
2022/11/19 11:49:26;;;;;;;18.33;10.68;;;;;;;-1.42;74.77;98549.19;5020367;28;20095;-81
2022/11/19 11:52:17;;;;;;;43.97;19.80;;;;;;;0.63;80.39;98534.34;5019220;28;20037;-81
2022/11/19 11:54:57;;;;;;;21.30;11.23;;;;;;;0.31;74.67;98535.72;5017169;28;20037;-81
2022/11/19 11:57:33;;;;;;;15.35;10.85;;;;;;;-0.70;74.00;98542.25;5024573;28;20032;-81